sensor_id;sensor_type;location;lat;lon;timestamp;P1;durP1;ratioP1;P2;durP2;ratioP2
49578;SDS011;35483;50.828;3.228;2022-07-29T00:00:03;3.97;;;2.65;;
49578;SDS011;35483;50.828;3.228;2022-07-29T00:02:30;2.97;;;2.55;;
49578;SDS011;35483;50.828;3.228;2022-07-29T00:04:57;4.30;;;2.50;;
49578;SDS011;35483;50.828;3.228;2022-07-29T00:07:23;3.45;;;2.70;;
49578;SDS011;35483;50.828;3.228;2022-07-29T00:09:49;5.72;;;2.72;;
49578;SDS011;35483;50.828;3.228;2022-07-29T00:12:15;6.40;;;3.30;;
49578;SDS011;35483;50.828;3.228;2022-07-29T00:14:41;4.60;;;3.45;;
49578;SDS011;35483;50.828;3.228;2022-07-29T00:17:07;4.20;;;3.22;;
49578;SDS011;35483;50.828;3.228;2022-07-29T00:19:32;4.57;;;2.72;;
49578;SDS011;35483;50.828;3.228;2022-07-29T00:21:59;4.07;;;2.95;;
49578;SDS011;35483;50.828;3.228;2022-07-29T00:24:25;3.35;;;2.63;;
49578;SDS011;35483;50.828;3.228;2022-07-29T00:26:51;5.82;;;3.45;;
49578;SDS011;35483;50.828;3.228;2022-07-29T00:29:17;4.65;;;3.17;;
49578;SDS011;35483;50.828;3.228;2022-07-29T00:31:43;3.42;;;3.10;;
49578;SDS011;35483;50.828;3.228;2022-07-29T00:34:09;4.90;;;3.08;;
49578;SDS011;35483;50.828;3.228;2022-07-29T00:36:55;4.40;;;3.33;;
49578;SDS011;35483;50.828;3.228;2022-07-29T00:39:21;3.72;;;3.30;;
49578;SDS011;35483;50.828;3.228;2022-07-29T00:41:47;5.40;;;2.97;;
49578;SDS011;35483;50.828;3.228;2022-07-29T00:44:13;4.50;;;3.38;;
49578;SDS011;35483;50.828;3.228;2022-07-29T00:46:39;7.93;;;3.65;;
49578;SDS011;35483;50.828;3.228;2022-07-29T00:49:05;5.15;;;3.55;;
49578;SDS011;35483;50.828;3.228;2022-07-29T00:51:34;5.18;;;3.30;;
49578;SDS011;35483;50.828;3.228;2022-07-29T00:54:03;3.60;;;3.30;;
49578;SDS011;35483;50.828;3.228;2022-07-29T00:56:30;4.53;;;3.50;;
49578;SDS011;35483;50.828;3.228;2022-07-29T00:58:57;5.60;;;3.80;;
49578;SDS011;35483;50.828;3.228;2022-07-29T01:01:23;5.10;;;3.80;;
49578;SDS011;35483;50.828;3.228;2022-07-29T01:03:49;5.22;;;3.90;;
49578;SDS011;35483;50.828;3.228;2022-07-29T01:06:18;5.72;;;3.63;;
49578;SDS011;35483;50.828;3.228;2022-07-29T01:08:47;4.13;;;3.75;;
49578;SDS011;35483;50.828;3.228;2022-07-29T01:11:14;5.22;;;3.30;;
49578;SDS011;35483;50.828;3.228;2022-07-29T01:13:42;7.18;;;3.92;;
49578;SDS011;35483;50.828;3.228;2022-07-29T01:16:10;3.53;;;3.22;;
49578;SDS011;35483;50.828;3.228;2022-07-29T01:18:44;4.28;;;3.38;;
49578;SDS011;35483;50.828;3.228;2022-07-29T01:31:53;5.68;;;3.55;;
49578;SDS011;35483;50.828;3.228;2022-07-29T01:34:39;3.50;;;3.13;;
49578;SDS011;35483;50.828;3.228;2022-07-29T01:39:47;3.30;;;2.97;;
49578;SDS011;35483;50.828;3.228;2022-07-29T01:42:25;4.82;;;3.20;;
49578;SDS011;35483;50.828;3.228;2022-07-29T01:45:26;3.95;;;3.47;;
49578;SDS011;35483;50.828;3.228;2022-07-29T01:48:02;4.20;;;3.67;;
49578;SDS011;35483;50.828;3.228;2022-07-29T01:50:36;5.07;;;3.85;;
49578;SDS011;35483;50.828;3.228;2022-07-29T01:53:09;6.10;;;3.63;;
49578;SDS011;35483;50.828;3.228;2022-07-29T01:55:38;4.20;;;3.15;;
49578;SDS011;35483;50.828;3.228;2022-07-29T01:58:10;6.22;;;4.05;;
49578;SDS011;35483;50.828;3.228;2022-07-29T02:00:38;5.07;;;3.63;;
49578;SDS011;35483;50.828;3.228;2022-07-29T02:03:07;5.50;;;3.58;;
49578;SDS011;35483;50.828;3.228;2022-07-29T02:05:36;5.10;;;3.65;;
49578;SDS011;35483;50.828;3.228;2022-07-29T02:08:04;9.15;;;3.35;;
49578;SDS011;35483;50.828;3.228;2022-07-29T02:10:31;5.80;;;3.55;;
49578;SDS011;35483;50.828;3.228;2022-07-29T02:12:59;6.65;;;4.03;;
49578;SDS011;35483;50.828;3.228;2022-07-29T02:15:27;5.65;;;4.05;;
49578;SDS011;35483;50.828;3.228;2022-07-29T02:18:00;5.63;;;4.40;;
49578;SDS011;35483;50.828;3.228;2022-07-29T02:20:29;4.23;;;3.57;;
49578;SDS011;35483;50.828;3.228;2022-07-29T02:22:57;5.63;;;4.20;;
49578;SDS011;35483;50.828;3.228;2022-07-29T02:25:25;3.50;;;3.20;;
49578;SDS011;35483;50.828;3.228;2022-07-29T02:27:52;4.72;;;3.40;;
49578;SDS011;35483;50.828;3.228;2022-07-29T02:30:19;4.50;;;3.78;;
49578;SDS011;35483;50.828;3.228;2022-07-29T02:32:48;6.68;;;4.10;;
49578;SDS011;35483;50.828;3.228;2022-07-29T02:35:15;5.90;;;4.22;;
49578;SDS011;35483;50.828;3.228;2022-07-29T02:37:43;6.68;;;4.47;;
49578;SDS011;35483;50.828;3.228;2022-07-29T02:40:30;4.40;;;3.95;;
49578;SDS011;35483;50.828;3.228;2022-07-29T02:42:57;5.53;;;4.88;;
49578;SDS011;35483;50.828;3.228;2022-07-29T02:45:24;6.90;;;4.75;;
49578;SDS011;35483;50.828;3.228;2022-07-29T02:47:50;6.10;;;4.78;;
49578;SDS011;35483;50.828;3.228;2022-07-29T02:50:23;6.13;;;4.40;;
49578;SDS011;35483;50.828;3.228;2022-07-29T02:53:00;7.63;;;4.65;;
49578;SDS011;35483;50.828;3.228;2022-07-29T02:55:33;7.53;;;4.75;;
49578;SDS011;35483;50.828;3.228;2022-07-29T02:58:03;7.47;;;4.97;;
49578;SDS011;35483;50.828;3.228;2022-07-29T03:00:31;6.68;;;5.57;;
49578;SDS011;35483;50.828;3.228;2022-07-29T03:03:02;9.35;;;5.00;;
49578;SDS011;35483;50.828;3.228;2022-07-29T03:05:31;9.70;;;5.20;;
49578;SDS011;35483;50.828;3.228;2022-07-29T03:08:00;5.88;;;4.05;;
49578;SDS011;35483;50.828;3.228;2022-07-29T03:10:28;6.43;;;5.15;;
49578;SDS011;35483;50.828;3.228;2022-07-29T03:12:55;7.72;;;5.78;;
49578;SDS011;35483;50.828;3.228;2022-07-29T03:15:22;6.82;;;4.93;;
49578;SDS011;35483;50.828;3.228;2022-07-29T03:17:48;8.25;;;5.00;;
49578;SDS011;35483;50.828;3.228;2022-07-29T03:20:15;6.55;;;4.75;;
49578;SDS011;35483;50.828;3.228;2022-07-29T03:22:41;5.00;;;4.57;;
49578;SDS011;35483;50.828;3.228;2022-07-29T03:25:15;6.72;;;5.03;;
49578;SDS011;35483;50.828;3.228;2022-07-29T03:27:42;7.35;;;4.82;;
49578;SDS011;35483;50.828;3.228;2022-07-29T03:30:10;5.13;;;4.43;;
49578;SDS011;35483;50.828;3.228;2022-07-29T03:32:37;8.23;;;4.95;;
49578;SDS011;35483;50.828;3.228;2022-07-29T03:35:03;7.65;;;4.70;;
49578;SDS011;35483;50.828;3.228;2022-07-29T03:37:29;7.20;;;4.15;;
49578;SDS011;35483;50.828;3.228;2022-07-29T03:39:56;6.57;;;4.63;;
49578;SDS011;35483;50.828;3.228;2022-07-29T03:42:26;7.03;;;4.95;;
49578;SDS011;35483;50.828;3.228;2022-07-29T03:44:56;7.30;;;4.88;;
49578;SDS011;35483;50.828;3.228;2022-07-29T03:47:24;5.15;;;4.40;;
49578;SDS011;35483;50.828;3.228;2022-07-29T03:49:52;5.00;;;4.38;;
49578;SDS011;35483;50.828;3.228;2022-07-29T03:52:23;8.35;;;5.20;;
49578;SDS011;35483;50.828;3.228;2022-07-29T03:54:50;6.72;;;5.07;;
49578;SDS011;35483;50.828;3.228;2022-07-29T03:57:16;6.25;;;4.97;;
49578;SDS011;35483;50.828;3.228;2022-07-29T03:59:45;9.13;;;5.10;;
49578;SDS011;35483;50.828;3.228;2022-07-29T04:02:12;6.72;;;5.00;;
49578;SDS011;35483;50.828;3.228;2022-07-29T04:04:38;7.75;;;5.30;;
49578;SDS011;35483;50.828;3.228;2022-07-29T04:07:04;9.32;;;5.70;;
49578;SDS011;35483;50.828;3.228;2022-07-29T04:09:30;5.00;;;4.50;;
49578;SDS011;35483;50.828;3.228;2022-07-29T04:11:56;7.03;;;4.88;;
49578;SDS011;35483;50.828;3.228;2022-07-29T04:14:22;6.75;;;4.53;;
49578;SDS011;35483;50.828;3.228;2022-07-29T04:16:48;6.22;;;4.53;;
49578;SDS011;35483;50.828;3.228;2022-07-29T04:19:13;7.20;;;5.13;;
49578;SDS011;35483;50.828;3.228;2022-07-29T04:21:41;6.15;;;5.15;;
49578;SDS011;35483;50.828;3.228;2022-07-29T04:24:07;7.30;;;5.55;;
49578;SDS011;35483;50.828;3.228;2022-07-29T04:26:35;10.25;;;5.15;;
49578;SDS011;35483;50.828;3.228;2022-07-29T04:29:00;6.53;;;4.65;;
49578;SDS011;35483;50.828;3.228;2022-07-29T04:31:26;6.65;;;4.82;;
49578;SDS011;35483;50.828;3.228;2022-07-29T04:33:52;8.98;;;5.20;;
49578;SDS011;35483;50.828;3.228;2022-07-29T04:36:18;6.30;;;5.25;;
49578;SDS011;35483;50.828;3.228;2022-07-29T04:38:43;6.47;;;5.32;;
49578;SDS011;35483;50.828;3.228;2022-07-29T04:41:09;5.55;;;4.93;;
49578;SDS011;35483;50.828;3.228;2022-07-29T04:43:35;5.68;;;5.07;;
49578;SDS011;35483;50.828;3.228;2022-07-29T04:46:01;7.50;;;4.95;;
49578;SDS011;35483;50.828;3.228;2022-07-29T04:48:31;7.25;;;4.88;;
49578;SDS011;35483;50.828;3.228;2022-07-29T04:50:57;6.32;;;5.03;;
49578;SDS011;35483;50.828;3.228;2022-07-29T04:53:24;8.38;;;5.30;;
49578;SDS011;35483;50.828;3.228;2022-07-29T04:55:50;8.07;;;4.97;;
49578;SDS011;35483;50.828;3.228;2022-07-29T04:58:16;7.65;;;5.13;;
49578;SDS011;35483;50.828;3.228;2022-07-29T05:00:42;6.82;;;5.30;;
49578;SDS011;35483;50.828;3.228;2022-07-29T05:03:09;10.35;;;5.47;;
49578;SDS011;35483;50.828;3.228;2022-07-29T05:05:36;7.10;;;5.63;;
49578;SDS011;35483;50.828;3.228;2022-07-29T05:08:02;8.23;;;5.95;;
49578;SDS011;35483;50.828;3.228;2022-07-29T05:10:28;7.68;;;5.80;;
49578;SDS011;35483;50.828;3.228;2022-07-29T05:13:00;8.27;;;5.90;;
49578;SDS011;35483;50.828;3.228;2022-07-29T05:15:25;8.55;;;5.57;;
49578;SDS011;35483;50.828;3.228;2022-07-29T05:17:51;7.78;;;6.13;;
49578;SDS011;35483;50.828;3.228;2022-07-29T05:20:17;6.97;;;5.60;;
49578;SDS011;35483;50.828;3.228;2022-07-29T05:22:44;8.52;;;5.88;;
49578;SDS011;35483;50.828;3.228;2022-07-29T05:25:09;13.35;;;5.88;;
49578;SDS011;35483;50.828;3.228;2022-07-29T05:27:35;8.25;;;5.75;;
49578;SDS011;35483;50.828;3.228;2022-07-29T05:30:02;10.30;;;5.85;;
49578;SDS011;35483;50.828;3.228;2022-07-29T05:32:28;6.50;;;4.97;;
49578;SDS011;35483;50.828;3.228;2022-07-29T05:34:54;5.82;;;5.28;;
49578;SDS011;35483;50.828;3.228;2022-07-29T05:37:19;7.40;;;6.00;;
49578;SDS011;35483;50.828;3.228;2022-07-29T05:39:46;9.40;;;5.38;;
49578;SDS011;35483;50.828;3.228;2022-07-29T05:42:12;7.47;;;6.28;;
49578;SDS011;35483;50.828;3.228;2022-07-29T05:44:38;8.80;;;7.00;;
49578;SDS011;35483;50.828;3.228;2022-07-29T05:47:04;9.13;;;7.47;;
49578;SDS011;35483;50.828;3.228;2022-07-29T05:49:32;10.70;;;6.70;;
49578;SDS011;35483;50.828;3.228;2022-07-29T05:51:59;6.28;;;5.72;;
49578;SDS011;35483;50.828;3.228;2022-07-29T05:54:25;7.88;;;5.90;;
49578;SDS011;35483;50.828;3.228;2022-07-29T05:56:53;7.35;;;5.95;;
49578;SDS011;35483;50.828;3.228;2022-07-29T05:59:19;5.70;;;5.10;;
49578;SDS011;35483;50.828;3.228;2022-07-29T06:01:47;7.03;;;5.72;;
49578;SDS011;35483;50.828;3.228;2022-07-29T06:04:13;6.10;;;5.50;;
49578;SDS011;35483;50.828;3.228;2022-07-29T06:06:41;6.95;;;5.82;;
49578;SDS011;35483;50.828;3.228;2022-07-29T06:09:08;8.55;;;5.72;;
49578;SDS011;35483;50.828;3.228;2022-07-29T06:11:34;7.00;;;5.43;;
49578;SDS011;35483;50.828;3.228;2022-07-29T06:14:00;6.30;;;5.45;;
49578;SDS011;35483;50.828;3.228;2022-07-29T06:16:30;5.65;;;5.10;;
49578;SDS011;35483;50.828;3.228;2022-07-29T06:18:55;6.43;;;5.15;;
49578;SDS011;35483;50.828;3.228;2022-07-29T06:21:22;8.07;;;5.78;;
49578;SDS011;35483;50.828;3.228;2022-07-29T06:23:49;7.07;;;5.55;;
49578;SDS011;35483;50.828;3.228;2022-07-29T06:26:14;9.13;;;5.65;;
49578;SDS011;35483;50.828;3.228;2022-07-29T06:28:41;8.88;;;5.60;;
49578;SDS011;35483;50.828;3.228;2022-07-29T06:31:06;6.57;;;5.28;;
49578;SDS011;35483;50.828;3.228;2022-07-29T06:33:32;7.88;;;5.00;;
49578;SDS011;35483;50.828;3.228;2022-07-29T06:35:58;8.43;;;5.75;;
49578;SDS011;35483;50.828;3.228;2022-07-29T06:38:25;9.77;;;5.43;;
49578;SDS011;35483;50.828;3.228;2022-07-29T06:40:51;7.20;;;5.50;;
49578;SDS011;35483;50.828;3.228;2022-07-29T06:45:59;5.78;;;5.13;;
49578;SDS011;35483;50.828;3.228;2022-07-29T06:48:26;8.00;;;5.60;;
49578;SDS011;35483;50.828;3.228;2022-07-29T06:50:52;7.82;;;5.53;;
49578;SDS011;35483;50.828;3.228;2022-07-29T06:53:18;10.90;;;5.45;;
49578;SDS011;35483;50.828;3.228;2022-07-29T06:55:44;10.20;;;5.55;;
49578;SDS011;35483;50.828;3.228;2022-07-29T06:58:10;7.68;;;5.38;;
49578;SDS011;35483;50.828;3.228;2022-07-29T07:00:42;6.78;;;5.90;;
49578;SDS011;35483;50.828;3.228;2022-07-29T07:03:08;6.38;;;5.00;;
49578;SDS011;35483;50.828;3.228;2022-07-29T07:05:34;6.93;;;5.38;;
49578;SDS011;35483;50.828;3.228;2022-07-29T07:08:00;6.35;;;5.70;;
49578;SDS011;35483;50.828;3.228;2022-07-29T07:10:27;6.60;;;5.03;;
49578;SDS011;35483;50.828;3.228;2022-07-29T07:12:54;6.72;;;4.90;;
49578;SDS011;35483;50.828;3.228;2022-07-29T07:15:19;8.52;;;5.57;;
49578;SDS011;35483;50.828;3.228;2022-07-29T07:17:48;7.72;;;5.38;;
49578;SDS011;35483;50.828;3.228;2022-07-29T07:20:14;7.18;;;5.38;;
49578;SDS011;35483;50.828;3.228;2022-07-29T07:22:41;8.35;;;5.70;;
49578;SDS011;35483;50.828;3.228;2022-07-29T07:25:07;6.05;;;4.95;;
49578;SDS011;35483;50.828;3.228;2022-07-29T07:27:34;8.38;;;5.55;;
49578;SDS011;35483;50.828;3.228;2022-07-29T07:30:01;8.90;;;5.20;;
49578;SDS011;35483;50.828;3.228;2022-07-29T07:32:28;9.52;;;5.38;;
49578;SDS011;35483;50.828;3.228;2022-07-29T07:34:54;11.43;;;5.38;;
49578;SDS011;35483;50.828;3.228;2022-07-29T07:37:20;7.60;;;5.22;;
49578;SDS011;35483;50.828;3.228;2022-07-29T07:39:46;7.15;;;5.72;;
49578;SDS011;35483;50.828;3.228;2022-07-29T07:42:11;8.52;;;5.38;;
49578;SDS011;35483;50.828;3.228;2022-07-29T07:44:38;9.57;;;5.32;;
49578;SDS011;35483;50.828;3.228;2022-07-29T07:47:04;7.95;;;5.22;;
49578;SDS011;35483;50.828;3.228;2022-07-29T07:49:30;6.95;;;5.70;;
49578;SDS011;35483;50.828;3.228;2022-07-29T07:51:56;6.93;;;6.20;;
49578;SDS011;35483;50.828;3.228;2022-07-29T07:54:22;7.53;;;5.57;;
49578;SDS011;35483;50.828;3.228;2022-07-29T07:56:48;7.93;;;5.85;;
49578;SDS011;35483;50.828;3.228;2022-07-29T07:59:14;6.40;;;4.80;;
49578;SDS011;35483;50.828;3.228;2022-07-29T08:01:41;5.90;;;4.60;;
49578;SDS011;35483;50.828;3.228;2022-07-29T08:04:07;8.07;;;5.38;;
49578;SDS011;35483;50.828;3.228;2022-07-29T08:06:34;7.57;;;5.28;;
49578;SDS011;35483;50.828;3.228;2022-07-29T08:09:01;7.55;;;6.10;;
49578;SDS011;35483;50.828;3.228;2022-07-29T08:11:30;9.73;;;5.50;;
49578;SDS011;35483;50.828;3.228;2022-07-29T08:13:56;6.07;;;4.80;;
49578;SDS011;35483;50.828;3.228;2022-07-29T08:16:22;9.02;;;4.70;;
49578;SDS011;35483;50.828;3.228;2022-07-29T08:18:50;6.97;;;4.82;;
49578;SDS011;35483;50.828;3.228;2022-07-29T08:21:16;7.50;;;5.03;;
49578;SDS011;35483;50.828;3.228;2022-07-29T08:23:44;6.28;;;5.20;;
49578;SDS011;35483;50.828;3.228;2022-07-29T08:26:12;9.00;;;5.38;;
49578;SDS011;35483;50.828;3.228;2022-07-29T08:28:39;7.07;;;5.63;;
49578;SDS011;35483;50.828;3.228;2022-07-29T08:31:06;6.90;;;5.43;;
49578;SDS011;35483;50.828;3.228;2022-07-29T08:33:32;6.75;;;4.30;;
49578;SDS011;35483;50.828;3.228;2022-07-29T08:35:58;6.20;;;4.65;;
49578;SDS011;35483;50.828;3.228;2022-07-29T08:38:27;7.97;;;4.82;;
49578;SDS011;35483;50.828;3.228;2022-07-29T08:40:53;7.45;;;4.47;;
49578;SDS011;35483;50.828;3.228;2022-07-29T08:43:19;6.78;;;4.88;;
49578;SDS011;35483;50.828;3.228;2022-07-29T08:45:47;6.10;;;4.25;;
49578;SDS011;35483;50.828;3.228;2022-07-29T08:48:18;7.13;;;4.88;;
49578;SDS011;35483;50.828;3.228;2022-07-29T08:50:46;6.03;;;4.10;;
49578;SDS011;35483;50.828;3.228;2022-07-29T08:53:14;5.32;;;3.83;;
49578;SDS011;35483;50.828;3.228;2022-07-29T08:55:42;6.72;;;4.57;;
49578;SDS011;35483;50.828;3.228;2022-07-29T08:58:09;7.43;;;4.30;;
49578;SDS011;35483;50.828;3.228;2022-07-29T09:00:36;4.47;;;3.83;;
49578;SDS011;35483;50.828;3.228;2022-07-29T09:03:06;5.55;;;3.97;;
49578;SDS011;35483;50.828;3.228;2022-07-29T09:05:33;7.78;;;4.07;;
49578;SDS011;35483;50.828;3.228;2022-07-29T09:07:59;4.30;;;3.63;;
49578;SDS011;35483;50.828;3.228;2022-07-29T09:10:26;7.32;;;5.15;;
49578;SDS011;35483;50.828;3.228;2022-07-29T09:12:54;8.95;;;3.70;;
49578;SDS011;35483;50.828;3.228;2022-07-29T09:15:21;6.68;;;4.15;;
49578;SDS011;35483;50.828;3.228;2022-07-29T09:17:48;4.95;;;4.45;;
49578;SDS011;35483;50.828;3.228;2022-07-29T09:20:16;4.85;;;4.35;;
49578;SDS011;35483;50.828;3.228;2022-07-29T09:22:44;5.10;;;4.07;;
49578;SDS011;35483;50.828;3.228;2022-07-29T09:25:14;4.38;;;3.35;;
49578;SDS011;35483;50.828;3.228;2022-07-29T09:28:04;4.68;;;3.30;;
49578;SDS011;35483;50.828;3.228;2022-07-29T09:30:34;4.55;;;3.65;;
49578;SDS011;35483;50.828;3.228;2022-07-29T09:33:01;3.60;;;3.15;;
49578;SDS011;35483;50.828;3.228;2022-07-29T09:35:29;4.30;;;3.08;;
49578;SDS011;35483;50.828;3.228;2022-07-29T09:37:55;4.57;;;3.75;;
49578;SDS011;35483;50.828;3.228;2022-07-29T09:40:25;5.97;;;3.72;;
49578;SDS011;35483;50.828;3.228;2022-07-29T09:42:53;4.88;;;3.30;;
49578;SDS011;35483;50.828;3.228;2022-07-29T09:45:29;5.03;;;3.33;;
49578;SDS011;35483;50.828;3.228;2022-07-29T09:47:56;5.93;;;3.78;;
49578;SDS011;35483;50.828;3.228;2022-07-29T09:50:35;3.75;;;3.42;;
49578;SDS011;35483;50.828;3.228;2022-07-29T09:53:02;4.95;;;2.90;;
49578;SDS011;35483;50.828;3.228;2022-07-29T09:55:29;6.18;;;3.42;;
49578;SDS011;35483;50.828;3.228;2022-07-29T09:57:55;4.35;;;3.22;;
49578;SDS011;35483;50.828;3.228;2022-07-29T10:00:44;4.38;;;3.38;;
49578;SDS011;35483;50.828;3.228;2022-07-29T10:03:12;4.53;;;3.47;;
49578;SDS011;35483;50.828;3.228;2022-07-29T10:05:40;6.45;;;3.10;;
49578;SDS011;35483;50.828;3.228;2022-07-29T10:08:07;4.82;;;2.95;;
49578;SDS011;35483;50.828;3.228;2022-07-29T10:10:37;5.35;;;3.10;;
49578;SDS011;35483;50.828;3.228;2022-07-29T10:13:09;6.20;;;3.17;;
49578;SDS011;35483;50.828;3.228;2022-07-29T10:15:39;7.47;;;3.05;;
49578;SDS011;35483;50.828;3.228;2022-07-29T10:18:10;5.18;;;3.78;;
49578;SDS011;35483;50.828;3.228;2022-07-29T10:20:37;8.52;;;4.60;;
49578;SDS011;35483;50.828;3.228;2022-07-29T10:23:04;4.93;;;3.25;;
49578;SDS011;35483;50.828;3.228;2022-07-29T10:25:30;4.30;;;3.03;;
49578;SDS011;35483;50.828;3.228;2022-07-29T10:27:57;3.28;;;2.72;;
49578;SDS011;35483;50.828;3.228;2022-07-29T10:30:24;2.90;;;2.70;;
49578;SDS011;35483;50.828;3.228;2022-07-29T10:42:17;5.32;;;2.75;;
49578;SDS011;35483;50.828;3.228;2022-07-29T10:44:46;2.53;;;2.33;;
49578;SDS011;35483;50.828;3.228;2022-07-29T10:50:02;4.65;;;3.03;;
49578;SDS011;35483;50.828;3.228;2022-07-29T10:55:34;3.22;;;2.42;;
49578;SDS011;35483;50.828;3.228;2022-07-29T11:00:55;5.18;;;2.58;;
49578;SDS011;35483;50.828;3.228;2022-07-29T11:06:06;6.47;;;3.00;;
49578;SDS011;35483;50.828;3.228;2022-07-29T11:08:34;6.00;;;2.67;;
49578;SDS011;35483;50.828;3.228;2022-07-29T11:16:14;4.95;;;2.72;;
49578;SDS011;35483;50.828;3.228;2022-07-29T11:21:37;3.65;;;2.00;;
49578;SDS011;35483;50.828;3.228;2022-07-29T11:27:16;3.83;;;2.30;;
49578;SDS011;35483;50.828;3.228;2022-07-29T11:29:49;3.28;;;2.65;;
49578;SDS011;35483;50.828;3.228;2022-07-29T11:32:20;4.35;;;2.53;;
49578;SDS011;35483;50.828;3.228;2022-07-29T11:34:47;3.42;;;2.50;;
49578;SDS011;35483;50.828;3.228;2022-07-29T11:37:14;3.05;;;2.45;;
49578;SDS011;35483;50.828;3.228;2022-07-29T11:47:24;2.90;;;2.60;;
49578;SDS011;35483;50.828;3.228;2022-07-29T11:49:52;4.00;;;2.90;;
49578;SDS011;35483;50.828;3.228;2022-07-29T11:52:19;4.50;;;2.90;;
49578;SDS011;35483;50.828;3.228;2022-07-29T11:54:49;3.47;;;3.00;;
49578;SDS011;35483;50.828;3.228;2022-07-29T11:57:16;5.18;;;2.90;;
49578;SDS011;35483;50.828;3.228;2022-07-29T11:59:45;3.47;;;2.50;;
49578;SDS011;35483;50.828;3.228;2022-07-29T12:02:12;5.78;;;3.05;;
49578;SDS011;35483;50.828;3.228;2022-07-29T12:04:48;4.70;;;2.55;;
49578;SDS011;35483;50.828;3.228;2022-07-29T12:07:14;4.57;;;2.80;;
49578;SDS011;35483;50.828;3.228;2022-07-29T12:09:48;3.72;;;2.85;;
49578;SDS011;35483;50.828;3.228;2022-07-29T12:14:41;4.50;;;2.50;;
49578;SDS011;35483;50.828;3.228;2022-07-29T12:17:33;4.93;;;2.53;;
49578;SDS011;35483;50.828;3.228;2022-07-29T12:19:59;2.95;;;2.63;;
49578;SDS011;35483;50.828;3.228;2022-07-29T12:22:32;3.90;;;2.90;;
49578;SDS011;35483;50.828;3.228;2022-07-29T12:25:03;4.03;;;2.80;;
49578;SDS011;35483;50.828;3.228;2022-07-29T12:30:01;3.72;;;2.28;;
49578;SDS011;35483;50.828;3.228;2022-07-29T12:32:38;3.90;;;2.55;;
49578;SDS011;35483;50.828;3.228;2022-07-29T12:37:33;4.25;;;3.10;;
49578;SDS011;35483;50.828;3.228;2022-07-29T12:40:02;3.22;;;2.80;;
49578;SDS011;35483;50.828;3.228;2022-07-29T12:42:29;3.85;;;2.78;;
49578;SDS011;35483;50.828;3.228;2022-07-29T12:44:56;4.63;;;2.30;;
49578;SDS011;35483;50.828;3.228;2022-07-29T12:47:21;6.32;;;2.53;;
49578;SDS011;35483;50.828;3.228;2022-07-29T12:49:48;4.93;;;2.60;;
49578;SDS011;35483;50.828;3.228;2022-07-29T12:52:28;4.35;;;2.30;;
49578;SDS011;35483;50.828;3.228;2022-07-29T12:54:55;2.90;;;2.30;;
49578;SDS011;35483;50.828;3.228;2022-07-29T12:57:21;9.60;;;2.40;;
49578;SDS011;35483;50.828;3.228;2022-07-29T12:59:58;4.53;;;2.60;;
49578;SDS011;35483;50.828;3.228;2022-07-29T13:02:26;3.95;;;2.40;;
49578;SDS011;35483;50.828;3.228;2022-07-29T13:04:57;7.28;;;2.30;;
49578;SDS011;35483;50.828;3.228;2022-07-29T13:07:28;4.13;;;2.35;;
49578;SDS011;35483;50.828;3.228;2022-07-29T13:13:02;3.75;;;2.42;;
49578;SDS011;35483;50.828;3.228;2022-07-29T13:17:58;3.13;;;2.33;;
49578;SDS011;35483;50.828;3.228;2022-07-29T13:20:25;6.80;;;2.40;;
49578;SDS011;35483;50.828;3.228;2022-07-29T13:22:54;2.60;;;1.73;;
49578;SDS011;35483;50.828;3.228;2022-07-29T13:25:27;2.55;;;2.33;;
49578;SDS011;35483;50.828;3.228;2022-07-29T13:27:54;3.60;;;2.40;;
49578;SDS011;35483;50.828;3.228;2022-07-29T13:30:21;3.78;;;2.10;;
49578;SDS011;35483;50.828;3.228;2022-07-29T13:32:47;3.00;;;2.35;;
49578;SDS011;35483;50.828;3.228;2022-07-29T13:35:14;8.43;;;2.45;;
49578;SDS011;35483;50.828;3.228;2022-07-29T13:37:39;3.72;;;1.90;;
49578;SDS011;35483;50.828;3.228;2022-07-29T13:40:06;2.95;;;2.20;;
49578;SDS011;35483;50.828;3.228;2022-07-29T13:42:33;3.20;;;2.30;;
49578;SDS011;35483;50.828;3.228;2022-07-29T13:44:59;4.53;;;2.30;;
49578;SDS011;35483;50.828;3.228;2022-07-29T13:47:25;3.42;;;2.20;;
49578;SDS011;35483;50.828;3.228;2022-07-29T13:49:52;4.72;;;2.63;;
49578;SDS011;35483;50.828;3.228;2022-07-29T13:52:18;3.05;;;2.50;;
49578;SDS011;35483;50.828;3.228;2022-07-29T13:54:44;2.53;;;2.33;;
49578;SDS011;35483;50.828;3.228;2022-07-29T13:57:15;3.33;;;2.13;;
49578;SDS011;35483;50.828;3.228;2022-07-29T13:59:41;3.95;;;2.53;;
49578;SDS011;35483;50.828;3.228;2022-07-29T14:02:08;4.18;;;2.25;;
49578;SDS011;35483;50.828;3.228;2022-07-29T14:04:34;4.30;;;2.28;;
49578;SDS011;35483;50.828;3.228;2022-07-29T14:07:02;5.10;;;2.10;;
49578;SDS011;35483;50.828;3.228;2022-07-29T14:09:27;3.55;;;1.95;;
49578;SDS011;35483;50.828;3.228;2022-07-29T14:11:53;3.25;;;2.15;;
49578;SDS011;35483;50.828;3.228;2022-07-29T14:14:19;2.38;;;2.17;;
49578;SDS011;35483;50.828;3.228;2022-07-29T14:16:45;5.25;;;2.40;;
49578;SDS011;35483;50.828;3.228;2022-07-29T14:19:11;3.17;;;2.08;;
49578;SDS011;35483;50.828;3.228;2022-07-29T14:21:37;4.35;;;2.50;;
49578;SDS011;35483;50.828;3.228;2022-07-29T14:24:03;5.45;;;2.60;;
49578;SDS011;35483;50.828;3.228;2022-07-29T14:26:30;6.30;;;2.80;;
49578;SDS011;35483;50.828;3.228;2022-07-29T14:28:56;4.32;;;2.63;;
49578;SDS011;35483;50.828;3.228;2022-07-29T14:31:21;3.10;;;2.60;;
49578;SDS011;35483;50.828;3.228;2022-07-29T14:33:47;2.97;;;1.90;;
49578;SDS011;35483;50.828;3.228;2022-07-29T14:36:13;3.20;;;2.38;;
49578;SDS011;35483;50.828;3.228;2022-07-29T14:38:39;3.28;;;2.38;;
49578;SDS011;35483;50.828;3.228;2022-07-29T14:41:05;3.13;;;2.33;;
49578;SDS011;35483;50.828;3.228;2022-07-29T14:43:32;4.95;;;2.40;;
49578;SDS011;35483;50.828;3.228;2022-07-29T14:46:00;2.95;;;2.08;;
49578;SDS011;35483;50.828;3.228;2022-07-29T14:48:27;6.25;;;2.55;;
49578;SDS011;35483;50.828;3.228;2022-07-29T14:50:52;3.95;;;2.40;;
49578;SDS011;35483;50.828;3.228;2022-07-29T14:53:20;3.28;;;2.20;;
49578;SDS011;35483;50.828;3.228;2022-07-29T14:55:46;4.10;;;2.30;;
49578;SDS011;35483;50.828;3.228;2022-07-29T14:58:12;7.97;;;2.53;;
49578;SDS011;35483;50.828;3.228;2022-07-29T15:00:38;3.58;;;2.20;;
49578;SDS011;35483;50.828;3.228;2022-07-29T15:03:04;3.42;;;2.30;;
49578;SDS011;35483;50.828;3.228;2022-07-29T15:05:30;4.03;;;2.10;;
49578;SDS011;35483;50.828;3.228;2022-07-29T15:07:57;3.17;;;2.40;;
49578;SDS011;35483;50.828;3.228;2022-07-29T15:10:24;3.03;;;2.30;;
49578;SDS011;35483;50.828;3.228;2022-07-29T15:12:52;5.05;;;2.17;;
49578;SDS011;35483;50.828;3.228;2022-07-29T15:15:18;4.07;;;2.47;;
49578;SDS011;35483;50.828;3.228;2022-07-29T15:17:43;3.42;;;2.00;;
49578;SDS011;35483;50.828;3.228;2022-07-29T15:20:10;3.38;;;2.33;;
49578;SDS011;35483;50.828;3.228;2022-07-29T15:22:37;3.42;;;2.25;;
49578;SDS011;35483;50.828;3.228;2022-07-29T15:25:04;3.22;;;1.90;;
49578;SDS011;35483;50.828;3.228;2022-07-29T15:27:30;2.90;;;1.90;;
49578;SDS011;35483;50.828;3.228;2022-07-29T15:29:56;3.60;;;1.85;;
49578;SDS011;35483;50.828;3.228;2022-07-29T15:32:22;4.03;;;2.33;;
49578;SDS011;35483;50.828;3.228;2022-07-29T15:34:48;5.68;;;2.20;;
49578;SDS011;35483;50.828;3.228;2022-07-29T15:37:14;3.45;;;2.70;;
49578;SDS011;35483;50.828;3.228;2022-07-29T15:39:39;3.35;;;2.50;;
49578;SDS011;35483;50.828;3.228;2022-07-29T15:42:05;3.55;;;2.40;;
49578;SDS011;35483;50.828;3.228;2022-07-29T15:44:31;3.75;;;2.22;;
49578;SDS011;35483;50.828;3.228;2022-07-29T15:46:57;4.10;;;2.20;;
49578;SDS011;35483;50.828;3.228;2022-07-29T15:49:30;4.57;;;2.00;;
49578;SDS011;35483;50.828;3.228;2022-07-29T15:51:59;3.90;;;2.50;;
49578;SDS011;35483;50.828;3.228;2022-07-29T15:54:27;2.25;;;2.05;;
49578;SDS011;35483;50.828;3.228;2022-07-29T15:56:54;3.35;;;2.00;;
49578;SDS011;35483;50.828;3.228;2022-07-29T15:59:21;5.45;;;2.13;;